Scott Camp — WDF3203 — position and weather

sailwx.info

Track history (hours):
 
Tides and Currents Weather Stations Pressure Air Temp Water Temp Dewpoint Dewpoint Depression Visibility Wind Speed Wind Dir Waves Ship Positions

Scott Camp

Owner: Florida Marine Transporters, Inc., Mandeville, LA. More information available from US FCC via Universal Licensing System and Coast Guard Vessel Documentation Center.

Last reported at 2018-May-21 22:30 UTC. Time now 2018-May-25 11:02 UTC.
Position N 29°05' W 095°12'.

Length 27 m; draft 2.5 m.

Type: Towing. MMSI: 367437150.

Date/timePositionNaut miles runAvg speedWind from/ knotsBaromVisibWave heightAir tempDewpointWater temp
2018-May-21 22:30N 29°05' W 095°12'2 4.7
2018-May-21 22:00N 29°07' W 095°11'2 5.0
2018-May-21 21:30N 29°09' W 095°09'3 5.6
2018-May-21 21:00N 29°10' W 095°07'3 5.6
2018-May-21 20:30N 29°12' W 095°04'3 5.4
2018-May-21 20:00N 29°14' W 095°02'3 5.5
2018-May-21 19:30N 29°16' W 094°60'3 5.5
2018-May-21 19:00N 29°17' W 094°57'3 5.7
2018-May-21 18:30N 29°17' W 094°54'3 5.7
2018-May-21 18:00N 29°19' W 094°52'3 5.2
2018-May-21 17:30N 29°21' W 094°49'1 2.8
2018-May-21 17:00N 29°22' W 094°50'2 3.0
2018-May-21 16:19N 29°23' W 094°52'1 2.8
2018-May-21 15:52N 29°22' W 094°53'0 0.2
2018-May-21 15:25N 29°22' W 094°54'0 0.0
2018-May-21 15:00N 29°22' W 094°54'0 0.0
2018-May-21 14:24N 29°22' W 094°54'0 0.0
2018-May-21 13:50N 29°22' W 094°54'1 3.9
2018-May-21 13:30N 29°23' W 094°52'0 0.0
2018-May-21 12:58N 29°23' W 094°52'0 0.0
2018-May-21 12:30N 29°23' W 094°52'0 0.0
2018-May-21 11:57N 29°23' W 094°52'0 0.0
2018-May-21 11:29N 29°23' W 094°52'0 0.0
2018-May-21 11:00N 29°23' W 094°52'0 0.0
2018-May-21 10:30N 29°23' W 094°52'0 0.0
2018-May-21 10:00N 29°23' W 094°52'0 0.0
2018-May-21 09:30N 29°23' W 094°52'0 0.0
2018-May-21 09:00N 29°23' W 094°52'0 0.0
2018-May-21 08:27N 29°23' W 094°52'0 0.0
2018-May-21 07:54N 29°23' W 094°52'0 0.0
2018-May-21 07:30N 29°23' W 094°52'0 0.0
2018-May-21 07:00N 29°23' W 094°52'0 0.0
2018-May-21 06:28N 29°23' W 094°52'0 0.0
2018-May-21 06:00N 29°23' W 094°52'0 0.0
2018-May-21 05:29N 29°23' W 094°52'1 1.2
2018-May-21 05:00N 29°23' W 094°53'1 1.4
2018-May-21 04:30N 29°22' W 094°53'0 0.0
2018-May-21 03:58N 29°22' W 094°53'0 0.0
2018-May-21 03:29N 29°22' W 094°53'0 0.0
2018-May-21 02:56N 29°22' W 094°53'0 0.0
2018-May-21 02:30N 29°22' W 094°53'0 0.0
2018-May-21 01:56N 29°22' W 094°53'0 0.0
2018-May-21 01:30N 29°22' W 094°53'0 0.0
2018-May-21 01:00N 29°22' W 094°53'0 0.0
2018-May-21 00:30N 29°22' W 094°53'0 0.0
2018-May-20 23:59N 29°22' W 094°53'0 0.0
2018-May-20 23:30N 29°22' W 094°53'0 0.0
2018-May-20 23:00N 29°22' W 094°53'0 0.0
2018-May-20 22:30N 29°22' W 094°53'0 0.0
2018-May-20 22:00N 29°22' W 094°53'0 0.0
2018-May-20 21:30N 29°22' W 094°53'0 0.0
2018-May-20 21:00N 29°22' W 094°53'0 0.0
2018-May-20 20:30N 29°22' W 094°53'0 0.0
2018-May-20 19:58N 29°22' W 094°53'0 0.0
2018-May-20 19:30N 29°22' W 094°53'0 0.0
2018-May-20 19:00N 29°22' W 094°53'0 0.0
2018-May-20 18:30N 29°22' W 094°53'0 0.0
2018-May-20 18:00N 29°22' W 094°53'0 0.0
2018-May-20 17:30N 29°22' W 094°53'0 0.0
2018-May-20 17:00N 29°22' W 094°53'0 0.0
2018-May-20 16:27N 29°22' W 094°53'0 0.0
2018-May-20 16:00N 29°22' W 094°53'0 0.0
2018-May-20 15:27N 29°22' W 094°53'0 0.0
2018-May-20 15:00N 29°22' W 094°53'0 0.0
2018-May-20 14:30N 29°22' W 094°53'0 0.0
2018-May-20 14:00N 29°22' W 094°53'0 0.0
2018-May-20 13:30N 29°22' W 094°53'0 0.0
2018-May-20 13:00N 29°22' W 094°53'0 0.0
2018-May-20 12:30N 29°22' W 094°53'0 0.0
2018-May-20 12:00N 29°22' W 094°53'0 0.0
2018-May-20 11:13N 29°22' W 094°53'0 0.0
2018-May-20 10:54N 29°22' W 094°53'0 0.0
2018-May-20 09:42N 29°22' W 094°53'0 0.0
2018-May-20 09:30N 29°22' W 094°53'0 0.0
2018-May-20 09:00N 29°22' W 094°53'0 0.5
2018-May-20 08:30N 29°22' W 094°53'1 1.2
2018-May-20 07:59N 29°23' W 094°53'2 3.2
2018-May-20 07:30N 29°22' W 094°51'0 1.0
2018-May-20 07:00N 29°22' W 094°50'2 4.3
2018-May-20 06:28N 29°22' W 094°48'2 5.3
2018-May-20 06:00N 29°23' W 094°46'1 1.2
2018-May-20 05:10N 29°24' W 094°45'0 0.0
2018-May-20 04:55N 29°24' W 094°45'0 0.0
2018-May-20 04:28N 29°24' W 094°45'0 0.0
2018-May-20 03:58N 29°24' W 094°45'0 0.0
2018-May-20 03:27N 29°24' W 094°45'0 0.0
2018-May-19 19:13N 29°24' W 094°45'0 0.0
2018-May-19 18:59N 29°24' W 094°45'0 0.0
2018-May-19 18:29N 29°24' W 094°45'0 0.0
2018-May-19 17:31N 29°24' W 094°45'0 0.0
2018-May-19 17:29N 29°24' W 094°45'0 0.0
2018-May-19 16:59N 29°24' W 094°45'0 0.0
2018-May-19 16:29N 29°24' W 094°45'0 0.0
2018-May-19 16:00N 29°24' W 094°45'0 0.0
2018-May-19 15:24N 29°24' W 094°45'0 0.0
2018-May-19 14:54N 29°24' W 094°45'0 0.0
2018-May-19 14:29N 29°24' W 094°45'0 0.0
2018-May-19 13:59N 29°24' W 094°45'0 0.0
2018-May-19 13:30N 29°24' W 094°45'0 0.0
2018-May-19 12:59N 29°24' W 094°45'0 0.0
2018-May-19 12:29N 29°24' W 094°45'0 0.0
2018-May-19 12:00N 29°24' W 094°45'0 0.0
2018-May-19 11:29N 29°24' W 094°45'0 0.0
2018-May-19 11:00N 29°24' W 094°45'0 0.0
2018-May-19 10:28N 29°24' W 094°45'0 0.0
2018-May-19 10:00N 29°24' W 094°45'0 0.0
2018-May-19 09:30N 29°24' W 094°45'0 0.0
2018-May-19 08:59N 29°24' W 094°45'0 0.0
2018-May-19 08:29N 29°24' W 094°45'0 0.0
2018-May-19 08:00N 29°24' W 094°45'0 0.0
2018-May-19 07:23N 29°24' W 094°45'0 0.0
2018-May-19 06:58N 29°24' W 094°45'0 0.0
2018-May-19 06:24N 29°24' W 094°45'0 0.0
2018-May-19 06:00N 29°24' W 094°45'0 0.0
2018-May-19 05:30N 29°24' W 094°45'0 0.0
2018-May-19 04:58N 29°24' W 094°45'0 0.0
2018-May-19 04:29N 29°24' W 094°45'0 0.0
2018-May-19 03:59N 29°24' W 094°45'0 0.0
2018-May-19 03:29N 29°24' W 094°45'0 0.0
2018-May-19 02:54N 29°24' W 094°45'0 0.0
2018-May-19 02:23N 29°24' W 094°45'0 0.0
2018-May-19 01:59N 29°24' W 094°45'0 0.0
2018-May-19 01:30N 29°24' W 094°45'0 0.0
2018-May-19 00:59N 29°24' W 094°45'0 0.0
2018-May-19 00:30N 29°24' W 094°45'0 0.0
2018-May-18 23:56N 29°24' W 094°45'0 0.0
2018-May-18 23:27N 29°24' W 094°45'0 0.0
2018-May-18 23:00N 29°24' W 094°45'0 0.0
2018-May-18 22:30N 29°24' W 094°45'0 0.0
2018-May-18 22:00N 29°24' W 094°45'0 0.0
2018-May-18 21:30N 29°24' W 094°45'0 0.0
2018-May-18 21:00N 29°24' W 094°45'0 0.0
2018-May-18 20:28N 29°24' W 094°45'0 0.0
2018-May-18 19:57N 29°24' W 094°45'0 0.0
2018-May-18 19:22N 29°24' W 094°45'0 0.0
2018-May-18 18:07N 29°24' W 094°45'0 0.0
2018-May-18 16:42N 29°24' W 094°45'0 0.0
2018-May-18 12:36N 29°24' W 094°45'0 0.0
2018-May-18 12:25N 29°24' W 094°45'0 0.0
2018-May-18 11:57N 29°24' W 094°45'0 0.0
2018-May-18 11:30N 29°24' W 094°45'0 0.0
2018-May-18 11:00N 29°24' W 094°45'0 0.0
2018-May-18 10:29N 29°24' W 094°45'0 0.0
2018-May-18 10:00N 29°24' W 094°45'0 0.0
2018-May-18 09:30N 29°24' W 094°45'0 0.0
2018-May-18 09:00N 29°24' W 094°45'0 0.0
2018-May-18 08:30N 29°24' W 094°45'0 0.0
2018-May-18 08:00N 29°24' W 094°45'0 0.0
2018-May-18 07:30N 29°24' W 094°45'0 0.0
2018-May-18 07:00N 29°24' W 094°45'0 0.0
2018-May-18 06:30N 29°24' W 094°45'0 0.0
2018-May-18 06:00N 29°24' W 094°45'0 0.0
2018-May-18 05:30N 29°24' W 094°45'0 0.0
2018-May-18 05:00N 29°24' W 094°45'0 0.0
2018-May-18 04:30N 29°24' W 094°45'0 0.0
2018-May-18 04:00N 29°24' W 094°45'0 0.0
2018-May-18 03:30N 29°24' W 094°45'0 0.0
2018-May-18 03:00N 29°24' W 094°45'0 0.0
2018-May-18 02:30N 29°24' W 094°45'0 0.0
2018-May-18 02:00N 29°24' W 094°45'0 0.0
2018-May-18 01:30N 29°24' W 094°45'0 0.0
2018-May-18 01:00N 29°24' W 094°45'0 0.1
2018-May-18 00:30N 29°24' W 094°45'0 0.0
2018-May-18 00:00N 29°24' W 094°45'0 0.0
2018-May-17 23:28N 29°24' W 094°45'0 0.0
2018-May-17 22:59N 29°24' W 094°45'0 0.0
2018-May-17 22:30N 29°24' W 094°45'0 0.0
2018-May-17 21:58N 29°24' W 094°45'0 0.0
2018-May-17 21:15N 29°24' W 094°45'1 0.6
2018-May-17 20:23N 29°24' W 094°45'18 4.1
2018-May-17 16:01N 29°34' W 094°27'0 5.3
2018-May-17 15:59N 29°34' W 094°27'3 2.9
2018-May-17 15:03N 29°36' W 094°24'0 4.7
2018-May-17 14:59N 29°36' W 094°24'2 4.1
2018-May-17 14:30N 29°36' W 094°22'2 4.8
2018-May-17 13:59N 29°38' W 094°19'2 4.8
2018-May-17 13:30N 29°39' W 094°17'2 4.9
2018-May-17 13:00N 29°40' W 094°15'3 5.0
2018-May-17 12:26N 29°41' W 094°12'2 5.0
2018-May-17 12:00N 29°42' W 094°09'3 5.3
2018-May-17 11:30N 29°43' W 094°07'3 5.6
2018-May-17 11:00N 29°45' W 094°04'2 4.1
2018-May-17 10:30N 29°46' W 094°03'3 5.0
2018-May-17 10:00N 29°48' W 094°00'2 4.7
2018-May-17 09:30N 29°49' W 093°58'3 5.0
2018-May-17 09:00N 29°51' W 093°57'3 5.1
2018-May-17 08:30N 29°53' W 093°55'3 6.0
2018-May-17 08:00N 29°56' W 093°53'1 1.8
2018-May-17 07:30N 29°56' W 093°52'1 2.8
2018-May-17 07:00N 29°58' W 093°51'3 5.1
2018-May-17 06:30N 29°59' W 093°49'3 5.9
2018-May-17 06:00N 30°00' W 093°46'3 5.4
2018-May-17 05:30N 30°03' W 093°44'2 4.3
2018-May-17 04:59N 30°04' W 093°42'2 5.1
2018-May-17 04:30N 30°04' W 093°39'3 5.0
2018-May-17 04:00N 30°04' W 093°36'2 4.6
2018-May-17 03:30N 30°04' W 093°33'2 4.6
2018-May-17 03:00N 30°04' W 093°31'2 4.8
2018-May-17 02:30N 30°04' W 093°28'2 4.8
2018-May-17 02:00N 30°04' W 093°25'2 4.7
2018-May-17 01:30N 30°04' W 093°22'2 3.6
2018-May-17 01:00N 30°04' W 093°21'2 4.1
2018-May-17 00:30N 30°06' W 093°20'3 5.1
2018-May-17 00:00N 30°09' W 093°20'1 2.2
2018-May-16 23:30N 30°10' W 093°19'1 1.1
2018-May-16 23:00N 30°10' W 093°19'0 0.4
2018-May-16 22:30N 30°10' W 093°19'0 0.1
2018-May-16 22:00N 30°10' W 093°19'0 0.0
2018-May-16 21:30N 30°10' W 093°19'0 0.0
2018-May-16 21:00N 30°10' W 093°19'0 0.0
2018-May-16 20:30N 30°10' W 093°19'0 0.0
2018-May-16 20:00N 30°10' W 093°19'0 0.0
2018-May-16 19:30N 30°10' W 093°19'0 0.0
2018-May-16 19:00N 30°10' W 093°19'0 0.0
2018-May-16 18:30N 30°10' W 093°19'0 0.0
2018-May-16 18:00N 30°10' W 093°19'0 0.0
2018-May-16 17:30N 30°10' W 093°19'0 0.0
2018-May-16 17:00N 30°10' W 093°19'0 0.0
2018-May-16 16:30N 30°10' W 093°19'0 0.0
2018-May-16 16:00N 30°10' W 093°19'0 0.0
2018-May-16 15:30N 30°10' W 093°19'0 0.0
2018-May-16 15:00N 30°10' W 093°19'0 0.0
2018-May-16 14:30N 30°10' W 093°19'0 0.0
2018-May-16 14:00N 30°10' W 093°19'0 0.0
2018-May-16 13:30N 30°10' W 093°19'0 0.0
2018-May-16 13:00N 30°10' W 093°19'0 0.0
2018-May-16 12:30N 30°10' W 093°19'0 0.0
2018-May-16 12:00N 30°10' W 093°19'0 0.0
2018-May-16 11:30N 30°10' W 093°19'0 0.0
2018-May-16 11:00N 30°10' W 093°19'0 0.0
2018-May-16 10:30N 30°10' W 093°19'0 0.0
2018-May-16 10:00N 30°10' W 093°19'0 0.0
2018-May-16 09:30N 30°10' W 093°19'0 0.0
2018-May-16 09:00N 30°10' W 093°19'0 0.0
2018-May-16 08:30N 30°10' W 093°19'0 0.0
2018-May-16 08:00N 30°10' W 093°19'0 0.0
2018-May-16 07:29N 30°10' W 093°19'0 0.0
2018-May-16 07:00N 30°10' W 093°19'0 0.0
2018-May-16 06:30N 30°10' W 093°19'0 0.0
2018-May-16 06:00N 30°10' W 093°19'0 0.0
2018-May-16 05:30N 30°10' W 093°19'0 0.0
2018-May-16 05:00N 30°10' W 093°19'0 0.0
2018-May-16 04:30N 30°10' W 093°19'0 0.0
2018-May-16 04:00N 30°10' W 093°19'0 0.0
2018-May-16 03:30N 30°10' W 093°19'0 0.0
2018-May-16 03:00N 30°10' W 093°19'0 0.0
2018-May-16 02:30N 30°10' W 093°19'0 0.0
2018-May-16 02:00N 30°10' W 093°19'0 0.0
2018-May-16 01:28N 30°10' W 093°19'0 0.0
2018-May-16 00:58N 30°10' W 093°19'0 0.0
2018-May-16 00:30N 30°10' W 093°19'0 0.0
2018-May-15 23:58N 30°10' W 093°19'0 0.0
2018-May-15 23:30N 30°10' W 093°19'0 0.0
2018-May-15 23:00N 30°10' W 093°19'0 0.0
2018-May-15 22:30N 30°10' W 093°19'0 0.0
2018-May-15 22:00N 30°10' W 093°19'0 0.0
2018-May-15 21:30N 30°10' W 093°19'0 0.0
2018-May-15 21:00N 30°10' W 093°19'0 0.0
2018-May-15 20:30N 30°10' W 093°19'0 0.7
2018-May-15 20:00N 30°10' W 093°19'2 4.1
2018-May-15 19:30N 30°08' W 093°20'3 5.6
2018-May-15 19:00N 30°05' W 093°20'2 4.8
2018-May-15 18:30N 30°04' W 093°22'0 0.7
2018-May-15 18:00N 30°04' W 093°22'0 0.0
2018-May-15 17:30N 30°04' W 093°22'0 0.1
2018-May-15 17:00N 30°04' W 093°22'0 0.0
2018-May-15 16:30N 30°04' W 093°22'0 0.0
2018-May-15 16:00N 30°04' W 093°22'0 0.0
2018-May-15 15:30N 30°04' W 093°22'1 2.8
2018-May-15 15:00N 30°04' W 093°21'0 0.6
2018-May-15 14:30N 30°04' W 093°21'1 2.1
2018-May-15 14:01N 30°04' W 093°22'0 0.0
2018-May-15 13:30N 30°04' W 093°22'0 0.0
2018-May-15 13:00N 30°04' W 093°22'0 0.0
2018-May-15 12:29N 30°04' W 093°22'0 0.0
2018-May-15 12:00N 30°04' W 093°22'0 0.0
2018-May-15 11:30N 30°04' W 093°22'0 0.0
2018-May-15 11:00N 30°04' W 093°22'0 0.0
2018-May-15 10:30N 30°04' W 093°22'0 0.0
2018-May-15 10:00N 30°04' W 093°22'0 0.0
2018-May-15 09:30N 30°04' W 093°22'0 0.0
2018-May-15 08:59N 30°04' W 093°22'0 0.0
2018-May-15 08:30N 30°04' W 093°22'0 0.0
2018-May-15 08:00N 30°04' W 093°22'0 0.0
2018-May-15 07:30N 30°04' W 093°22'0 0.0
2018-May-15 07:00N 30°04' W 093°22'0 0.0
2018-May-15 06:30N 30°04' W 093°22'0 0.0
2018-May-15 06:00N 30°04' W 093°22'0 0.0
2018-May-15 05:30N 30°04' W 093°22'0 0.0
2018-May-15 04:58N 30°04' W 093°22'0 0.0
2018-May-15 04:30N 30°04' W 093°22'0 0.0
2018-May-15 04:00N 30°04' W 093°22'0 0.0
2018-May-15 03:30N 30°04' W 093°22'0 0.0
2018-May-15 03:00N 30°04' W 093°22'0 0.0
2018-May-15 02:30N 30°04' W 093°22'0 0.0
2018-May-15 02:00N 30°04' W 093°22'0 0.0
2018-May-15 01:30N 30°04' W 093°22'0 0.0
2018-May-15 01:00N 30°04' W 093°22'0 0.0
2018-May-15 00:30N 30°04' W 093°22'0 0.0
2018-May-15 00:00N 30°04' W 093°22'0 0.0
2018-May-14 23:30N 30°04' W 093°22'0 0.0
2018-May-14 23:00N 30°04' W 093°22'0 0.0
2018-May-14 22:30N 30°04' W 093°22'0 0.0
2018-May-14 21:57N 30°04' W 093°22'0 0.0
2018-May-14 21:29N 30°04' W 093°22'0 0.0
2018-May-14 21:00N 30°04' W 093°22'0 0.0
2018-May-14 20:30N 30°04' W 093°22'0 0.0
2018-May-14 19:59N 30°04' W 093°22'0 0.0
2018-May-14 19:30N 30°04' W 093°22'0 0.0
2018-May-14 18:59N 30°04' W 093°22'0 0.0
2018-May-14 18:30N 30°04' W 093°22'0 0.0
2018-May-14 17:59N 30°04' W 093°22'0 0.0
2018-May-14 17:06N 30°04' W 093°22'0 0.0
2018-May-14 17:00N 30°04' W 093°22'0 0.0
2018-May-14 16:30N 30°04' W 093°22'0 0.0
2018-May-14 16:00N 30°04' W 093°22'0 0.0
2018-May-14 15:30N 30°04' W 093°22'0 0.0
2018-May-14 15:00N 30°04' W 093°22'0 0.0
2018-May-14 14:30N 30°04' W 093°22'0 0.0
2018-May-14 14:00N 30°04' W 093°22'0 0.0
2018-May-14 13:30N 30°04' W 093°22'0 0.0
2018-May-14 12:59N 30°04' W 093°22'0 0.0
2018-May-14 12:30N 30°04' W 093°22'0 0.0
2018-May-14 12:00N 30°04' W 093°22'0 0.0
2018-May-14 11:30N 30°04' W 093°22'0 0.0
2018-May-14 11:00N 30°04' W 093°22'0 0.0
2018-May-14 10:30N 30°04' W 093°22'0 0.0
2018-May-14 10:00N 30°04' W 093°22'0 0.0
2018-May-14 09:30N 30°04' W 093°22'0 0.0
2018-May-14 09:00N 30°04' W 093°22'0 0.0
2018-May-14 08:30N 30°04' W 093°22'0 0.0
2018-May-14 08:00N 30°04' W 093°22'0 0.0
2018-May-14 07:30N 30°04' W 093°22'0 0.0
2018-May-14 07:00N 30°04' W 093°22'0 0.0
2018-May-14 06:30N 30°04' W 093°22'0 0.0
2018-May-14 06:00N 30°04' W 093°22'0 0.0
2018-May-14 05:30N 30°04' W 093°22'0 0.0
2018-May-14 04:59N 30°04' W 093°22'0 0.0
2018-May-14 04:30N 30°04' W 093°22'0 0.0
2018-May-14 03:55N 30°04' W 093°22'0 0.0
2018-May-14 03:28N 30°04' W 093°22'0 0.0
2018-May-14 03:00N 30°04' W 093°22'0 0.0
2018-May-14 02:30N 30°04' W 093°22'0 0.0
2018-May-14 02:00N 30°04' W 093°22'0 0.0
2018-May-14 01:30N 30°04' W 093°22'0 0.0
2018-May-14 01:00N 30°04' W 093°22'0 0.0
2018-May-14 00:30N 30°04' W 093°22'1 1.5
2018-May-14 00:00N 30°04' W 093°21'0 0.0
2018-May-13 23:30N 30°04' W 093°21'0 0.0
2018-May-13 23:00N 30°04' W 093°21'0 0.0
2018-May-13 22:30N 30°04' W 093°21'0 0.0
2018-May-13 22:00N 30°04' W 093°21'0 0.0
2018-May-13 21:30N 30°04' W 093°21'0 0.0
2018-May-13 21:00N 30°04' W 093°21'0 0.0
2018-May-13 20:30N 30°04' W 093°21'0 0.0
2018-May-13 19:57N 30°04' W 093°21'0 0.0
2018-May-13 19:29N 30°04' W 093°21'0 0.0
2018-May-13 19:00N 30°04' W 093°21'0 0.0
2018-May-13 18:30N 30°04' W 093°21'0 0.0
2018-May-13 18:00N 30°04' W 093°21'0 0.0
2018-May-13 17:29N 30°04' W 093°21'0 0.0
2018-May-13 17:00N 30°04' W 093°21'0 0.0
2018-May-13 16:30N 30°04' W 093°21'0 0.0
2018-May-13 15:58N 30°04' W 093°21'0 0.0
2018-May-13 15:29N 30°04' W 093°21'0 0.0
2018-May-13 15:00N 30°04' W 093°21'0 0.0
2018-May-13 14:30N 30°04' W 093°21'0 0.0
2018-May-13 14:00N 30°04' W 093°21'0 0.0
2018-May-13 13:30N 30°04' W 093°21'0 0.0
2018-May-13 13:00N 30°04' W 093°21'0 0.0
2018-May-13 12:30N 30°04' W 093°21'0 0.0
2018-May-13 12:00N 30°04' W 093°21'0 0.0
2018-May-13 11:30N 30°04' W 093°21'0 0.0
2018-May-13 11:00N 30°04' W 093°21'0 0.0
2018-May-13 10:30N 30°04' W 093°21'0 0.0
2018-May-13 10:00N 30°04' W 093°21'0 0.0
2018-May-13 09:30N 30°04' W 093°21'0 1.0
2018-May-13 09:00N 30°04' W 093°22'0 0.0
2018-May-13 08:30N 30°04' W 093°22'0 0.0
2018-May-13 08:00N 30°04' W 093°22'0 0.0
2018-May-13 07:30N 30°04' W 093°22'0 0.0
2018-May-13 07:00N 30°04' W 093°22'0 0.0
2018-May-13 06:30N 30°04' W 093°22'0 0.0
2018-May-13 06:00N 30°04' W 093°22'0 0.0
2018-May-13 05:30N 30°04' W 093°22'0 0.0
2018-May-13 05:00N 30°04' W 093°22'0 0.0
2018-May-13 04:30N 30°04' W 093°22'0 0.0
2018-May-13 04:00N 30°04' W 093°22'0 0.0
2018-May-13 03:30N 30°04' W 093°22'0 0.0
2018-May-13 03:00N 30°04' W 093°22'0 0.0
2018-May-13 02:30N 30°04' W 093°22'0 0.0
2018-May-13 02:00N 30°04' W 093°22'0 0.0
2018-May-13 01:30N 30°04' W 093°22'0 0.0
2018-May-13 01:00N 30°04' W 093°22'0 0.0
2018-May-13 00:30N 30°04' W 093°22'0 0.2
2018-May-13 00:00N 30°04' W 093°22'0 0.8
2018-May-12 23:30N 30°04' W 093°21'0 0.0
2018-May-12 23:00N 30°04' W 093°21'0 0.9
2018-May-12 22:29N 30°04' W 093°22'0 0.0
2018-May-12 22:00N 30°04' W 093°22'0 0.0
2018-May-12 21:30N 30°04' W 093°22'0 0.0
2018-May-12 21:00N 30°04' W 093°22'0 0.0
2018-May-12 20:30N 30°04' W 093°22'0 0.0
2018-May-12 20:00N 30°04' W 093°22'0 0.0
2018-May-12 19:30N 30°04' W 093°22'0 0.0
2018-May-12 19:00N 30°04' W 093°22'0 0.0
2018-May-12 18:28N 30°04' W 093°22'0 0.0
2018-May-12 18:00N 30°04' W 093°22'0 0.0
2018-May-12 17:30N 30°04' W 093°22'0 0.0
2018-May-12 17:00N 30°04' W 093°22'0 0.0
2018-May-12 16:30N 30°04' W 093°22'0 0.0
2018-May-12 16:00N 30°04' W 093°22'0 0.0
2018-May-12 15:30N 30°04' W 093°22'0 0.0
2018-May-12 15:00N 30°04' W 093°22'0 0.0
2018-May-12 14:30N 30°04' W 093°22'0 0.0
2018-May-12 14:00N 30°04' W 093°22'0 0.0
2018-May-12 13:30N 30°04' W 093°22'0 0.0
2018-May-12 13:00N 30°04' W 093°22'0 0.6
2018-May-12 12:30N 30°04' W 093°22'0 0.1
2018-May-12 12:00N 30°04' W 093°22'0 0.0
2018-May-12 11:30N 30°04' W 093°22'0 0.0
2018-May-12 10:55N 30°04' W 093°22'0 0.0
2018-May-12 10:30N 30°04' W 093°22'0 0.0
2018-May-12 10:00N 30°04' W 093°22'1 2.7
2018-May-12 09:30N 30°04' W 093°24'3 6.2
2018-May-12 09:00N 30°04' W 093°27'3 6.9
2018-May-12 08:30N 30°04' W 093°31'3 6.3
2018-May-12 08:00N 30°04' W 093°35'3 6.8
2018-May-12 07:30N 30°04' W 093°39'3 6.7
2018-May-12 07:00N 30°03' W 093°43'3 6.4
2018-May-12 06:30N 30°01' W 093°45'4 7.3
2018-May-12 06:00N 29°59' W 093°49'3 6.3
2018-May-12 05:30N 29°57' W 093°52'3 7.0
2018-May-12 05:00N 29°54' W 093°54'4 7.0
2018-May-12 04:30N 29°51' W 093°56'3 6.0
2018-May-12 04:00N 29°49' W 093°59'0 0.9
2018-May-12 03:30N 29°49' W 093°59'3 6.3
2018-May-12 03:00N 29°47' W 094°02'3 6.4
2018-May-12 02:30N 29°45' W 094°05'3 6.4
2018-May-12 02:00N 29°43' W 094°08'3 6.1
2018-May-12 01:30N 29°41' W 094°11'3 6.1
2018-May-12 01:00N 29°40' W 094°14'3 6.0
2018-May-12 00:29N 29°39' W 094°17'2 5.2
2018-May-12 00:00N 29°37' W 094°20'3 5.5
2018-May-11 23:30N 29°36' W 094°22'2 4.6
2018-May-11 22:57N 29°35' W 094°25'  
Track history (hours):
 
Tides and Currents Weather Stations Pressure Air Temp Water Temp Dewpoint Dewpoint Depression Visibility Wind Speed Wind Dir Waves Ship Positions

Scott Camp

Owner: Florida Marine Transporters, Inc., Mandeville, LA. More information available from US FCC via Universal Licensing System and Coast Guard Vessel Documentation Center.

Last reported at 2018-May-21 22:30 UTC. Time now 2018-May-25 11:02 UTC.
Position N 29°05' W 095°12'.

Length 27 m; draft 2.5 m.

Type: Towing. MMSI: 367437150.

Date/timePositionNaut miles runAvg speedWind from/ knotsBaromVisibWave heightAir tempDewpointWater temp
2018-May-21 22:30N 29°05' W 095°12'2 4.7
2018-May-21 22:00N 29°07' W 095°11'2 5.0
2018-May-21 21:30N 29°09' W 095°09'3 5.6
2018-May-21 21:00N 29°10' W 095°07'3 5.6
2018-May-21 20:30N 29°12' W 095°04'3 5.4
2018-May-21 20:00N 29°14' W 095°02'3 5.5
2018-May-21 19:30N 29°16' W 094°60'3 5.5
2018-May-21 19:00N 29°17' W 094°57'3 5.7
2018-May-21 18:30N 29°17' W 094°54'3 5.7
2018-May-21 18:00N 29°19' W 094°52'3 5.2
2018-May-21 17:30N 29°21' W 094°49'1 2.8
2018-May-21 17:00N 29°22' W 094°50'2 3.0
2018-May-21 16:19N 29°23' W 094°52'1 2.8
2018-May-21 15:52N 29°22' W 094°53'0 0.2
2018-May-21 15:25N 29°22' W 094°54'0 0.0
2018-May-21 15:00N 29°22' W 094°54'0 0.0
2018-May-21 14:24N 29°22' W 094°54'0 0.0
2018-May-21 13:50N 29°22' W 094°54'1 3.9
2018-May-21 13:30N 29°23' W 094°52'0 0.0
2018-May-21 12:58N 29°23' W 094°52'0 0.0
2018-May-21 12:30N 29°23' W 094°52'0 0.0
2018-May-21 11:57N 29°23' W 094°52'0 0.0
2018-May-21 11:29N 29°23' W 094°52'0 0.0
2018-May-21 11:00N 29°23' W 094°52'0 0.0
2018-May-21 10:30N 29°23' W 094°52'0 0.0
2018-May-21 10:00N 29°23' W 094°52'0 0.0
2018-May-21 09:30N 29°23' W 094°52'0 0.0
2018-May-21 09:00N 29°23' W 094°52'0 0.0
2018-May-21 08:27N 29°23' W 094°52'0 0.0
2018-May-21 07:54N 29°23' W 094°52'0 0.0
2018-May-21 07:30N 29°23' W 094°52'0 0.0
2018-May-21 07:00N 29°23' W 094°52'0 0.0
2018-May-21 06:28N 29°23' W 094°52'0 0.0
2018-May-21 06:00N 29°23' W 094°52'0 0.0
2018-May-21 05:29N 29°23' W 094°52'1 1.2
2018-May-21 05:00N 29°23' W 094°53'1 1.4
2018-May-21 04:30N 29°22' W 094°53'0 0.0
2018-May-21 03:58N 29°22' W 094°53'0 0.0
2018-May-21 03:29N 29°22' W 094°53'0 0.0
2018-May-21 02:56N 29°22' W 094°53'0 0.0
2018-May-21 02:30N 29°22' W 094°53'0 0.0
2018-May-21 01:56N 29°22' W 094°53'0 0.0
2018-May-21 01:30N 29°22' W 094°53'0 0.0
2018-May-21 01:00N 29°22' W 094°53'0 0.0
2018-May-21 00:30N 29°22' W 094°53'0 0.0
2018-May-20 23:59N 29°22' W 094°53'0 0.0
2018-May-20 23:30N 29°22' W 094°53'0 0.0
2018-May-20 23:00N 29°22' W 094°53'0 0.0
2018-May-20 22:30N 29°22' W 094°53'0 0.0
2018-May-20 22:00N 29°22' W 094°53'0 0.0
2018-May-20 21:30N 29°22' W 094°53'0 0.0
2018-May-20 21:00N 29°22' W 094°53'0 0.0
2018-May-20 20:30N 29°22' W 094°53'0 0.0
2018-May-20 19:58N 29°22' W 094°53'0 0.0
2018-May-20 19:30N 29°22' W 094°53'0 0.0
2018-May-20 19:00N 29°22' W 094°53'0 0.0
2018-May-20 18:30N 29°22' W 094°53'0 0.0
2018-May-20 18:00N 29°22' W 094°53'0 0.0
2018-May-20 17:30N 29°22' W 094°53'0 0.0
2018-May-20 17:00N 29°22' W 094°53'0 0.0
2018-May-20 16:27N 29°22' W 094°53'0 0.0
2018-May-20 16:00N 29°22' W 094°53'0 0.0
2018-May-20 15:27N 29°22' W 094°53'0 0.0
2018-May-20 15:00N 29°22' W 094°53'0 0.0
2018-May-20 14:30N 29°22' W 094°53'0 0.0
2018-May-20 14:00N 29°22' W 094°53'0 0.0
2018-May-20 13:30N 29°22' W 094°53'0 0.0
2018-May-20 13:00N 29°22' W 094°53'0 0.0
2018-May-20 12:30N 29°22' W 094°53'0 0.0
2018-May-20 12:00N 29°22' W 094°53'0 0.0
2018-May-20 11:13N 29°22' W 094°53'0 0.0
2018-May-20 10:54N 29°22' W 094°53'0 0.0
2018-May-20 09:42N 29°22' W 094°53'0 0.0
2018-May-20 09:30N 29°22' W 094°53'0 0.0
2018-May-20 09:00N 29°22' W 094°53'0 0.5
2018-May-20 08:30N 29°22' W 094°53'1 1.2
2018-May-20 07:59N 29°23' W 094°53'2 3.2
2018-May-20 07:30N 29°22' W 094°51'0 1.0
2018-May-20 07:00N 29°22' W 094°50'2 4.3
2018-May-20 06:28N 29°22' W 094°48'2 5.3
2018-May-20 06:00N 29°23' W 094°46'1 1.2
2018-May-20 05:10N 29°24' W 094°45'0 0.0
2018-May-20 04:55N 29°24' W 094°45'0 0.0
2018-May-20 04:28N 29°24' W 094°45'0 0.0
2018-May-20 03:58N 29°24' W 094°45'0 0.0
2018-May-20 03:27N 29°24' W 094°45'0 0.0
2018-May-19 19:13N 29°24' W 094°45'0 0.0
2018-May-19 18:59N 29°24' W 094°45'0 0.0
2018-May-19 18:29N 29°24' W 094°45'0 0.0
2018-May-19 17:31N 29°24' W 094°45'0 0.0
2018-May-19 17:29N 29°24' W 094°45'0 0.0
2018-May-19 16:59N 29°24' W 094°45'0 0.0
2018-May-19 16:29N 29°24' W 094°45'0 0.0
2018-May-19 16:00N 29°24' W 094°45'0 0.0
2018-May-19 15:24N 29°24' W 094°45'0 0.0
2018-May-19 14:54N 29°24' W 094°45'0 0.0
2018-May-19 14:29N 29°24' W 094°45'0 0.0
2018-May-19 13:59N 29°24' W 094°45'0 0.0
2018-May-19 13:30N 29°24' W 094°45'0 0.0
2018-May-19 12:59N 29°24' W 094°45'0 0.0
2018-May-19 12:29N 29°24' W 094°45'0 0.0
2018-May-19 12:00N 29°24' W 094°45'0 0.0
2018-May-19 11:29N 29°24' W 094°45'0 0.0
2018-May-19 11:00N 29°24' W 094°45'0 0.0
2018-May-19 10:28N 29°24' W 094°45'0 0.0
2018-May-19 10:00N 29°24' W 094°45'0 0.0
2018-May-19 09:30N 29°24' W 094°45'0 0.0
2018-May-19 08:59N 29°24' W 094°45'0 0.0
2018-May-19 08:29N 29°24' W 094°45'0 0.0
2018-May-19 08:00N 29°24' W 094°45'0 0.0
2018-May-19 07:23N 29°24' W 094°45'0 0.0
2018-May-19 06:58N 29°24' W 094°45'0 0.0
2018-May-19 06:24N 29°24' W 094°45'0 0.0
2018-May-19 06:00N 29°24' W 094°45'0 0.0
2018-May-19 05:30N 29°24' W 094°45'0 0.0
2018-May-19 04:58N 29°24' W 094°45'0 0.0
2018-May-19 04:29N 29°24' W 094°45'0 0.0
2018-May-19 03:59N 29°24' W 094°45'0 0.0
2018-May-19 03:29N 29°24' W 094°45'0 0.0
2018-May-19 02:54N 29°24' W 094°45'0 0.0
2018-May-19 02:23N 29°24' W 094°45'0 0.0
2018-May-19 01:59N 29°24' W 094°45'0 0.0
2018-May-19 01:30N 29°24' W 094°45'0 0.0
2018-May-19 00:59N 29°24' W 094°45'0 0.0
2018-May-19 00:30N 29°24' W 094°45'0 0.0
2018-May-18 23:56N 29°24' W 094°45'0 0.0
2018-May-18 23:27N 29°24' W 094°45'0 0.0
2018-May-18 23:00N 29°24' W 094°45'0 0.0
2018-May-18 22:30N 29°24' W 094°45'0 0.0
2018-May-18 22:00N 29°24' W 094°45'0 0.0
2018-May-18 21:30N 29°24' W 094°45'0 0.0
2018-May-18 21:00N 29°24' W 094°45'0 0.0
2018-May-18 20:28N 29°24' W 094°45'0 0.0
2018-May-18 19:57N 29°24' W 094°45'0 0.0
2018-May-18 19:22N 29°24' W 094°45'0 0.0
2018-May-18 18:07N 29°24' W 094°45'0 0.0
2018-May-18 16:42N 29°24' W 094°45'0 0.0
2018-May-18 12:36N 29°24' W 094°45'0 0.0
2018-May-18 12:25N 29°24' W 094°45'0 0.0
2018-May-18 11:57N 29°24' W 094°45'0 0.0
2018-May-18 11:30N 29°24' W 094°45'0 0.0
2018-May-18 11:00N 29°24' W 094°45'0 0.0
2018-May-18 10:29N 29°24' W 094°45'0 0.0
2018-May-18 10:00N 29°24' W 094°45'0 0.0
2018-May-18 09:30N 29°24' W 094°45'0 0.0
2018-May-18 09:00N 29°24' W 094°45'0 0.0
2018-May-18 08:30N 29°24' W 094°45'0 0.0
2018-May-18 08:00N 29°24' W 094°45'0 0.0
2018-May-18 07:30N 29°24' W 094°45'0 0.0
2018-May-18 07:00N 29°24' W 094°45'0 0.0
2018-May-18 06:30N 29°24' W 094°45'0 0.0
2018-May-18 06:00N 29°24' W 094°45'0 0.0
2018-May-18 05:30N 29°24' W 094°45'0 0.0
2018-May-18 05:00N 29°24' W 094°45'0 0.0
2018-May-18 04:30N 29°24' W 094°45'0 0.0
2018-May-18 04:00N 29°24' W 094°45'0 0.0
2018-May-18 03:30N 29°24' W 094°45'0 0.0
2018-May-18 03:00N 29°24' W 094°45'0 0.0
2018-May-18 02:30N 29°24' W 094°45'0 0.0
2018-May-18 02:00N 29°24' W 094°45'0 0.0
2018-May-18 01:30N 29°24' W 094°45'0 0.0
2018-May-18 01:00N 29°24' W 094°45'0 0.1
2018-May-18 00:30N 29°24' W 094°45'0 0.0
2018-May-18 00:00N 29°24' W 094°45'0 0.0
2018-May-17 23:28N 29°24' W 094°45'0 0.0
2018-May-17 22:59N 29°24' W 094°45'0 0.0
2018-May-17 22:30N 29°24' W 094°45'0 0.0
2018-May-17 21:58N 29°24' W 094°45'0 0.0
2018-May-17 21:15N 29°24' W 094°45'1 0.6
2018-May-17 20:23N 29°24' W 094°45'18 4.1
2018-May-17 16:01N 29°34' W 094°27'0 5.3
2018-May-17 15:59N 29°34' W 094°27'3 2.9
2018-May-17 15:03N 29°36' W 094°24'0 4.7
2018-May-17 14:59N 29°36' W 094°24'2 4.1
2018-May-17 14:30N 29°36' W 094°22'2 4.8
2018-May-17 13:59N 29°38' W 094°19'2 4.8
2018-May-17 13:30N 29°39' W 094°17'2 4.9
2018-May-17 13:00N 29°40' W 094°15'3 5.0
2018-May-17 12:26N 29°41' W 094°12'2 5.0
2018-May-17 12:00N 29°42' W 094°09'3 5.3
2018-May-17 11:30N 29°43' W 094°07'3 5.6
2018-May-17 11:00N 29°45' W 094°04'2 4.1
2018-May-17 10:30N 29°46' W 094°03'3 5.0
2018-May-17 10:00N 29°48' W 094°00'2 4.7
2018-May-17 09:30N 29°49' W 093°58'3 5.0
2018-May-17 09:00N 29°51' W 093°57'3 5.1
2018-May-17 08:30N 29°53' W 093°55'3 6.0
2018-May-17 08:00N 29°56' W 093°53'1 1.8
2018-May-17 07:30N 29°56' W 093°52'1 2.8
2018-May-17 07:00N 29°58' W 093°51'3 5.1
2018-May-17 06:30N 29°59' W 093°49'3 5.9
2018-May-17 06:00N 30°00' W 093°46'3 5.4
2018-May-17 05:30N 30°03' W 093°44'2 4.3
2018-May-17 04:59N 30°04' W 093°42'2 5.1
2018-May-17 04:30N 30°04' W 093°39'3 5.0
2018-May-17 04:00N 30°04' W 093°36'2 4.6
2018-May-17 03:30N 30°04' W 093°33'2 4.6
2018-May-17 03:00N 30°04' W 093°31'2 4.8
2018-May-17 02:30N 30°04' W 093°28'2 4.8
2018-May-17 02:00N 30°04' W 093°25'2 4.7
2018-May-17 01:30N 30°04' W 093°22'2 3.6
2018-May-17 01:00N 30°04' W 093°21'2 4.1
2018-May-17 00:30N 30°06' W 093°20'3 5.1
2018-May-17 00:00N 30°09' W 093°20'1 2.2
2018-May-16 23:30N 30°10' W 093°19'1 1.1
2018-May-16 23:00N 30°10' W 093°19'0 0.4
2018-May-16 22:30N 30°10' W 093°19'0 0.1
2018-May-16 22:00N 30°10' W 093°19'0 0.0
2018-May-16 21:30N 30°10' W 093°19'0 0.0
2018-May-16 21:00N 30°10' W 093°19'0 0.0
2018-May-16 20:30N 30°10' W 093°19'0 0.0
2018-May-16 20:00N 30°10' W 093°19'0 0.0
2018-May-16 19:30N 30°10' W 093°19'0 0.0
2018-May-16 19:00N 30°10' W 093°19'0 0.0
2018-May-16 18:30N 30°10' W 093°19'0 0.0
2018-May-16 18:00N 30°10' W 093°19'0 0.0
2018-May-16 17:30N 30°10' W 093°19'0 0.0
2018-May-16 17:00N 30°10' W 093°19'0 0.0
2018-May-16 16:30N 30°10' W 093°19'0 0.0
2018-May-16 16:00N 30°10' W 093°19'0 0.0
2018-May-16 15:30N 30°10' W 093°19'0 0.0
2018-May-16 15:00N 30°10' W 093°19'0 0.0
2018-May-16 14:30N 30°10' W 093°19'0 0.0
2018-May-16 14:00N 30°10' W 093°19'0 0.0
2018-May-16 13:30N 30°10' W 093°19'0 0.0
2018-May-16 13:00N 30°10' W 093°19'0 0.0
2018-May-16 12:30N 30°10' W 093°19'0 0.0
2018-May-16 12:00N 30°10' W 093°19'0 0.0
2018-May-16 11:30N 30°10' W 093°19'0 0.0
2018-May-16 11:00N 30°10' W 093°19'0 0.0
2018-May-16 10:30N 30°10' W 093°19'0 0.0
2018-May-16 10:00N 30°10' W 093°19'0 0.0
2018-May-16 09:30N 30°10' W 093°19'0 0.0
2018-May-16 09:00N 30°10' W 093°19'0 0.0
2018-May-16 08:30N 30°10' W 093°19'0 0.0
2018-May-16 08:00N 30°10' W 093°19'0 0.0
2018-May-16 07:29N 30°10' W 093°19'0 0.0
2018-May-16 07:00N 30°10' W 093°19'0 0.0
2018-May-16 06:30N 30°10' W 093°19'0 0.0
2018-May-16 06:00N 30°10' W 093°19'0 0.0
2018-May-16 05:30N 30°10' W 093°19'0 0.0
2018-May-16 05:00N 30°10' W 093°19'0 0.0
2018-May-16 04:30N 30°10' W 093°19'0 0.0
2018-May-16 04:00N 30°10' W 093°19'0 0.0
2018-May-16 03:30N 30°10' W 093°19'0 0.0
2018-May-16 03:00N 30°10' W 093°19'0 0.0
2018-May-16 02:30N 30°10' W 093°19'0 0.0
2018-May-16 02:00N 30°10' W 093°19'0 0.0
2018-May-16 01:28N 30°10' W 093°19'0 0.0
2018-May-16 00:58N 30°10' W 093°19'0 0.0
2018-May-16 00:30N 30°10' W 093°19'0 0.0
2018-May-15 23:58N 30°10' W 093°19'0 0.0
2018-May-15 23:30N 30°10' W 093°19'0 0.0
2018-May-15 23:00N 30°10' W 093°19'0 0.0
2018-May-15 22:30N 30°10' W 093°19'0 0.0
2018-May-15 22:00N 30°10' W 093°19'0 0.0
2018-May-15 21:30N 30°10' W 093°19'0 0.0
2018-May-15 21:00N 30°10' W 093°19'0 0.0
2018-May-15 20:30N 30°10' W 093°19'0 0.7
2018-May-15 20:00N 30°10' W 093°19'2 4.1
2018-May-15 19:30N 30°08' W 093°20'3 5.6
2018-May-15 19:00N 30°05' W 093°20'2 4.8
2018-May-15 18:30N 30°04' W 093°22'0 0.7
2018-May-15 18:00N 30°04' W 093°22'0 0.0
2018-May-15 17:30N 30°04' W 093°22'0 0.1
2018-May-15 17:00N 30°04' W 093°22'0 0.0
2018-May-15 16:30N 30°04' W 093°22'0 0.0
2018-May-15 16:00N 30°04' W 093°22'0 0.0
2018-May-15 15:30N 30°04' W 093°22'1 2.8
2018-May-15 15:00N 30°04' W 093°21'0 0.6
2018-May-15 14:30N 30°04' W 093°21'1 2.1
2018-May-15 14:01N 30°04' W 093°22'0 0.0
2018-May-15 13:30N 30°04' W 093°22'0 0.0
2018-May-15 13:00N 30°04' W 093°22'0 0.0
2018-May-15 12:29N 30°04' W 093°22'0 0.0
2018-May-15 12:00N 30°04' W 093°22'0 0.0
2018-May-15 11:30N 30°04' W 093°22'0 0.0
2018-May-15 11:00N 30°04' W 093°22'0 0.0
2018-May-15 10:30N 30°04' W 093°22'0 0.0
2018-May-15 10:00N 30°04' W 093°22'0 0.0
2018-May-15 09:30N 30°04' W 093°22'0 0.0
2018-May-15 08:59N 30°04' W 093°22'0 0.0
2018-May-15 08:30N 30°04' W 093°22'0 0.0
2018-May-15 08:00N 30°04' W 093°22'0 0.0
2018-May-15 07:30N 30°04' W 093°22'0 0.0
2018-May-15 07:00N 30°04' W 093°22'0 0.0
2018-May-15 06:30N 30°04' W 093°22'0 0.0
2018-May-15 06:00N 30°04' W 093°22'0 0.0
2018-May-15 05:30N 30°04' W 093°22'0 0.0
2018-May-15 04:58N 30°04' W 093°22'0 0.0
2018-May-15 04:30N 30°04' W 093°22'0 0.0
2018-May-15 04:00N 30°04' W 093°22'0 0.0
2018-May-15 03:30N 30°04' W 093°22'0 0.0
2018-May-15 03:00N 30°04' W 093°22'0 0.0
2018-May-15 02:30N 30°04' W 093°22'0 0.0
2018-May-15 02:00N 30°04' W 093°22'0 0.0
2018-May-15 01:30N 30°04' W 093°22'0 0.0
2018-May-15 01:00N 30°04' W 093°22'0 0.0
2018-May-15 00:30N 30°04' W 093°22'0 0.0
2018-May-15 00:00N 30°04' W 093°22'0 0.0
2018-May-14 23:30N 30°04' W 093°22'0 0.0
2018-May-14 23:00N 30°04' W 093°22'0 0.0
2018-May-14 22:30N 30°04' W 093°22'0 0.0
2018-May-14 21:57N 30°04' W 093°22'0 0.0
2018-May-14 21:29N 30°04' W 093°22'0 0.0
2018-May-14 21:00N 30°04' W 093°22'0 0.0
2018-May-14 20:30N 30°04' W 093°22'0 0.0
2018-May-14 19:59N 30°04' W 093°22'0 0.0
2018-May-14 19:30N 30°04' W 093°22'0 0.0
2018-May-14 18:59N 30°04' W 093°22'0 0.0
2018-May-14 18:30N 30°04' W 093°22'0 0.0
2018-May-14 17:59N 30°04' W 093°22'0 0.0
2018-May-14 17:06N 30°04' W 093°22'0 0.0
2018-May-14 17:00N 30°04' W 093°22'0 0.0
2018-May-14 16:30N 30°04' W 093°22'0 0.0
2018-May-14 16:00N 30°04' W 093°22'0 0.0
2018-May-14 15:30N 30°04' W 093°22'0 0.0
2018-May-14 15:00N 30°04' W 093°22'0 0.0
2018-May-14 14:30N 30°04' W 093°22'0 0.0
2018-May-14 14:00N 30°04' W 093°22'0 0.0
2018-May-14 13:30N 30°04' W 093°22'0 0.0
2018-May-14 12:59N 30°04' W 093°22'0 0.0
2018-May-14 12:30N 30°04' W 093°22'0 0.0
2018-May-14 12:00N 30°04' W 093°22'0 0.0
2018-May-14 11:30N 30°04' W 093°22'0 0.0
2018-May-14 11:00N 30°04' W 093°22'0 0.0
2018-May-14 10:30N 30°04' W 093°22'0 0.0
2018-May-14 10:00N 30°04' W 093°22'0 0.0
2018-May-14 09:30N 30°04' W 093°22'0 0.0
2018-May-14 09:00N 30°04' W 093°22'0 0.0
2018-May-14 08:30N 30°04' W 093°22'0 0.0
2018-May-14 08:00N 30°04' W 093°22'0 0.0
2018-May-14 07:30N 30°04' W 093°22'0 0.0
2018-May-14 07:00N 30°04' W 093°22'0 0.0
2018-May-14 06:30N 30°04' W 093°22'0 0.0
2018-May-14 06:00N 30°04' W 093°22'0 0.0
2018-May-14 05:30N 30°04' W 093°22'0 0.0
2018-May-14 04:59N 30°04' W 093°22'0 0.0
2018-May-14 04:30N 30°04' W 093°22'0 0.0
2018-May-14 03:55N 30°04' W 093°22'0 0.0
2018-May-14 03:28N 30°04' W 093°22'0 0.0
2018-May-14 03:00N 30°04' W 093°22'0 0.0
2018-May-14 02:30N 30°04' W 093°22'0 0.0
2018-May-14 02:00N 30°04' W 093°22'0 0.0
2018-May-14 01:30N 30°04' W 093°22'0 0.0
2018-May-14 01:00N 30°04' W 093°22'0 0.0
2018-May-14 00:30N 30°04' W 093°22'1 1.5
2018-May-14 00:00N 30°04' W 093°21'0 0.0
2018-May-13 23:30N 30°04' W 093°21'0 0.0
2018-May-13 23:00N 30°04' W 093°21'0 0.0
2018-May-13 22:30N 30°04' W 093°21'0 0.0
2018-May-13 22:00N 30°04' W 093°21'0 0.0
2018-May-13 21:30N 30°04' W 093°21'0 0.0
2018-May-13 21:00N 30°04' W 093°21'0 0.0
2018-May-13 20:30N 30°04' W 093°21'0 0.0
2018-May-13 19:57N 30°04' W 093°21'0 0.0
2018-May-13 19:29N 30°04' W 093°21'0 0.0
2018-May-13 19:00N 30°04' W 093°21'0 0.0
2018-May-13 18:30N 30°04' W 093°21'0 0.0
2018-May-13 18:00N 30°04' W 093°21'0 0.0
2018-May-13 17:29N 30°04' W 093°21'0 0.0
2018-May-13 17:00N 30°04' W 093°21'0 0.0
2018-May-13 16:30N 30°04' W 093°21'0 0.0
2018-May-13 15:58N 30°04' W 093°21'0 0.0
2018-May-13 15:29N 30°04' W 093°21'0 0.0
2018-May-13 15:00N 30°04' W 093°21'0 0.0
2018-May-13 14:30N 30°04' W 093°21'0 0.0
2018-May-13 14:00N 30°04' W 093°21'0 0.0
2018-May-13 13:30N 30°04' W 093°21'0 0.0
2018-May-13 13:00N 30°04' W 093°21'0 0.0
2018-May-13 12:30N 30°04' W 093°21'0 0.0
2018-May-13 12:00N 30°04' W 093°21'0 0.0
2018-May-13 11:30N 30°04' W 093°21'0 0.0
2018-May-13 11:00N 30°04' W 093°21'0 0.0
2018-May-13 10:30N 30°04' W 093°21'0 0.0
2018-May-13 10:00N 30°04' W 093°21'0 0.0
2018-May-13 09:30N 30°04' W 093°21'0 1.0
2018-May-13 09:00N 30°04' W 093°22'0 0.0
2018-May-13 08:30N 30°04' W 093°22'0 0.0
2018-May-13 08:00N 30°04' W 093°22'0 0.0
2018-May-13 07:30N 30°04' W 093°22'0 0.0
2018-May-13 07:00N 30°04' W 093°22'0 0.0
2018-May-13 06:30N 30°04' W 093°22'0 0.0
2018-May-13 06:00N 30°04' W 093°22'0 0.0
2018-May-13 05:30N 30°04' W 093°22'0 0.0
2018-May-13 05:00N 30°04' W 093°22'0 0.0
2018-May-13 04:30N 30°04' W 093°22'0 0.0
2018-May-13 04:00N 30°04' W 093°22'0 0.0
2018-May-13 03:30N 30°04' W 093°22'0 0.0
2018-May-13 03:00N 30°04' W 093°22'0 0.0
2018-May-13 02:30N 30°04' W 093°22'0 0.0
2018-May-13 02:00N 30°04' W 093°22'0 0.0
2018-May-13 01:30N 30°04' W 093°22'0 0.0
2018-May-13 01:00N 30°04' W 093°22'0 0.0
2018-May-13 00:30N 30°04' W 093°22'0 0.2
2018-May-13 00:00N 30°04' W 093°22'0 0.8
2018-May-12 23:30N 30°04' W 093°21'0 0.0
2018-May-12 23:00N 30°04' W 093°21'0 0.9
2018-May-12 22:29N 30°04' W 093°22'0 0.0
2018-May-12 22:00N 30°04' W 093°22'0 0.0
2018-May-12 21:30N 30°04' W 093°22'0 0.0
2018-May-12 21:00N 30°04' W 093°22'0 0.0
2018-May-12 20:30N 30°04' W 093°22'0 0.0
2018-May-12 20:00N 30°04' W 093°22'0 0.0
2018-May-12 19:30N 30°04' W 093°22'0 0.0
2018-May-12 19:00N 30°04' W 093°22'0 0.0
2018-May-12 18:28N 30°04' W 093°22'0 0.0
2018-May-12 18:00N 30°04' W 093°22'0 0.0
2018-May-12 17:30N 30°04' W 093°22'0 0.0
2018-May-12 17:00N 30°04' W 093°22'0 0.0
2018-May-12 16:30N 30°04' W 093°22'0 0.0
2018-May-12 16:00N 30°04' W 093°22'0 0.0
2018-May-12 15:30N 30°04' W 093°22'0 0.0
2018-May-12 15:00N 30°04' W 093°22'0 0.0
2018-May-12 14:30N 30°04' W 093°22'0 0.0
2018-May-12 14:00N 30°04' W 093°22'0 0.0
2018-May-12 13:30N 30°04' W 093°22'0 0.0
2018-May-12 13:00N 30°04' W 093°22'0 0.6
2018-May-12 12:30N 30°04' W 093°22'0 0.1
2018-May-12 12:00N 30°04' W 093°22'0 0.0
2018-May-12 11:30N 30°04' W 093°22'0 0.0
2018-May-12 10:55N 30°04' W 093°22'0 0.0
2018-May-12 10:30N 30°04' W 093°22'0 0.0
2018-May-12 10:00N 30°04' W 093°22'1 2.7
2018-May-12 09:30N 30°04' W 093°24'3 6.2
2018-May-12 09:00N 30°04' W 093°27'3 6.9
2018-May-12 08:30N 30°04' W 093°31'3 6.3
2018-May-12 08:00N 30°04' W 093°35'3 6.8
2018-May-12 07:30N 30°04' W 093°39'3 6.7
2018-May-12 07:00N 30°03' W 093°43'3 6.4
2018-May-12 06:30N 30°01' W 093°45'4 7.3
2018-May-12 06:00N 29°59' W 093°49'3 6.3
2018-May-12 05:30N 29°57' W 093°52'3 7.0
2018-May-12 05:00N 29°54' W 093°54'4 7.0
2018-May-12 04:30N 29°51' W 093°56'3 6.0
2018-May-12 04:00N 29°49' W 093°59'0 0.9
2018-May-12 03:30N 29°49' W 093°59'3 6.3
2018-May-12 03:00N 29°47' W 094°02'3 6.4
2018-May-12 02:30N 29°45' W 094°05'3 6.4
2018-May-12 02:00N 29°43' W 094°08'3 6.1
2018-May-12 01:30N 29°41' W 094°11'3 6.1
2018-May-12 01:00N 29°40' W 094°14'3 6.0
2018-May-12 00:29N 29°39' W 094°17'2 5.2
2018-May-12 00:00N 29°37' W 094°20'3 5.5
2018-May-11 23:30N 29°36' W 094°22'2 4.6
2018-May-11 22:57N 29°35' W 094°25'  

Dump ship's entire track history